Weather observations for the past three days for
West Point, Middle Peninsula Regional Airport
Imperial (Metric)
Date Time (edt) Wind (mph) Vis. (mi.) Weather Sky Cond. Temperature (ºF) Relative Humidity Wind Chill (°F) Heat Index (°F) Pressure Precipitation (in)
Air Dwpt 6 hour altimeter (in) sea level (mb) 1 hr 3 hr 6 hr
Max. Min.
02 13:15 E 9 10.00 Partly Cloudy SCT029 89.2 76.1 65% 101 30.06 0.0
02 12:55 E 7 10.00 Fair CLR 88.7 76.8 68% 101 30.06 0.0
02 12:35 E 6 10.00 Partly Cloudy SCT024 SCT029 SCT034 88.5 77 69% 101 30.06 0.0
02 12:15 E 6 10.00 Partly Cloudy SCT027 SCT034 88 77 70% 100 30.06 0.0
02 11:55 E 8 10.00 Fair CLR 88.2 76.5 68% 100 30.07 0.0
02 11:35 NE 6 10.00 Fair CLR 88.3 74.8 64% 98 30.07 0.0
02 11:15 E 8 10.00 Fair CLR 88.2 75.2 66% 98 30.07 0.0
02 10:55 NE 6 10.00 Fair CLR 87.8 74.8 66% 97 30.07 0.0
02 10:35 NE 3 10.00 Fair CLR 87.1 74.3 66% 96 30.07 0.0
02 10:15 NE 5 10.00 Fair CLR 86.9 75 68% 96 30.06 0.0
02 09:55 N 5 10.00 Fair CLR 84.9 74.7 71% 93 30.05 0.0
02 09:35 N 5 10.00 Fair CLR 83.3 73.9 73% 90 30.04 0.0
02 09:15 N 3 7.00 Fair CLR 81.9 73.8 77% 88 30.04 0.0
02 08:55 Calm 5.00 Fair CLR 79.9 73.4 81% 84 30.05 0.0
02 08:35 N 3 7.00 Fair CLR 79.3 73.2 82% 83 30.05 0.0
02 08:15 Calm 5.00 Fair CLR 78.3 73.6 86% 81 30.04 0.0
02 07:55 Calm 5.00 Fair CLR 77.2 73.8 77.2 72.1 89% 79 30.05 0.0
02 07:35 Calm 5.00 Fair CLR 76.1 73.6 92% 76 30.05 0.0
02 07:15 Calm 4.00 Fair CLR 74.7 73.8 97% 30.04 0.0
02 06:55 Calm 5.00 Fair CLR 73.6 72.7 97% 30.04 0.0
02 06:35 Calm 5.00 Fair CLR 73 72.3 98% 30.03 0.0
02 06:15 Calm 5.00 Fair CLR 74.3 73.8 98% 30.02 0.0
02 05:55 Calm 5.00 Fair CLR 73.6 73 98% 30.02 0.0
02 05:35 Calm 5.00 Fair CLR 72.3 71.8 98% 30.03 0.0
02 05:15 Calm 7.00 Fair CLR 73.4 72.9 98% 30.02 0.0
02 04:55 Calm 7.00 Fair CLR 73.9 73.4 98% 30.02 0.0
02 04:35 Calm 10.00 Fair CLR 73.8 72.9 97% 30.02 0.0
02 04:15 Calm 10.00 Fair CLR 74.7 73.6 96% 30.02 0.0
02 03:55 Calm 7.00 Fair CLR 75 74.1 97% 73 30.02 0.0
02 03:35 Calm 10.00 Partly Cloudy SCT080 76.1 74.5 95% 76 30.02 0.0
02 03:15 N 5 10.00 Partly Cloudy SCT080 75.6 74.3 96% 74 30.02 0.0
02 02:55 Calm 10.00 Partly Cloudy SCT065 76.1 74.8 96% 76 30.01 0.0
02 02:35 Calm 10.00 Partly Cloudy SCT065 76.5 74.1 93% 77 30.01 0.0
02 02:15 Calm 10.00 Partly Cloudy SCT070 75.2 73.6 95% 74 30.01 0.0
02 01:55 SW 5 10.00 Partly Cloudy SCT070 75 73.9 82.9 74.8 96% 73 30.01 0.0
02 01:35 Calm 10.00 Fair CLR 75.6 74.3 96% 74 30.01 0.0
02 01:15 Calm 10.00 Fair CLR 76.3 74.1 93% 76 30.01 0.0
02 00:55 Calm 10.00 Partly Cloudy SCT070 75.6 73.8 94% 75 30.01 0.0
02 00:35 Calm 10.00 Partly Cloudy SCT070 75.9 74.5 95% 75 30.02 0.0
02 00:15 Calm 10.00 Fair CLR 75.4 74.1 96% 74 30.01 0.0
01 23:55 Calm 10.00 Fair CLR 76.3 74.5 94% 76 30 0.0
01 23:35 Calm 10.00 Fair CLR 75.4 74.1 96% 74 30 0.0
01 23:15 Calm 7.00 Fair CLR 75.9 74.5 95% 75 30 0.0
01 22:55 Calm 7.00 Fair CLR 76.1 74.5 95% 76 30 0.0
01 22:35 Calm 7.00 Fair CLR 76.6 74.3 93% 77 30 0.0
01 22:15 Calm 7.00 Fair CLR 77.2 74.3 91% 79 30 0.0
01 21:55 Calm 10.00 Fair CLR 77.4 74.5 91% 79 30 0.0
01 21:35 Calm 7.00 Fair CLR 77.2 74.5 91% 79 29.99 0.0
01 21:15 Calm 7.00 Fair CLR 77.2 74.7 92% 79 29.98 0.0
01 20:55 Calm 7.00 Fair CLR 78.3 75.2 90% 81 29.97 0.0
01 20:35 Calm 7.00 Fair CLR 79 75.4 89% 83 29.97 0.0
01 20:15 Calm 7.00 Fair CLR 80.4 75.6 85% 86 29.96 0.0
01 19:55 Calm 7.00 Fair CLR 83.1 73.9 93.4 81.9 74% 90 29.96 0.0
01 19:35 Calm 7.00 Fair CLR 82.4 75.4 79% 90 29.97 0.0
01 19:15 Calm 5.00 Fair CLR 85.1 74.5 71% 93 29.97 0.0
01 18:55 Calm 7.00 Fair CLR 85.1 72.7 66% 92 29.97 0.0
01 18:35 Calm 7.00 Fair CLR 88.5 71.8 58% 95 29.98 0.0
01 18:15 Calm 7.00 Fair CLR 90.1 72 55% 97 29.98 0.0
01 17:55 W 3 7.00 Fair CLR 91.8 69.1 48% 97 29.98 0.0
01 17:35 W 5 10.00 Fair CLR 92.1 68.7 46% 97 29.98 0.0
01 17:15 W 6 10.00 Fair CLR 92.7 66.2 42% 96 29.98 0.0
01 16:55 W 7 10.00 Fair CLR 92.7 68.4 45% 97 29.99 0.0
01 16:35 W 6 10.00 Fair CLR 92.8 69.6 47% 99 29.99 0.0
01 16:15 W 5 10.00 Fair CLR 92.5 68.2 45% 97 29.99 0.0
01 15:55 W 3 10.00 Fair CLR 93.2 66.7 42% 97 29.99 0.0
01 15:35 SW 6 10.00 Fair CLR 93.2 67.8 43% 97 30 0.0
01 15:15 W 3 10.00 Fair CLR 93.2 66.7 42% 97 30 0.0
01 14:55 W 6 10.00 Fair CLR 93 68 44% 97 30.01 0.0
01 14:35 W 5 10.00 Fair CLR 92.7 69.1 46% 98 30.02 0.0
01 14:15 SW 5 10.00 Fair CLR 92.7 69.4 47% 98 30.01 0.0
01 13:55 Calm 7.00 Fair CLR 91.8 69.1 92.1 73.4 48% 97 30.02 0.0
01 13:35 SW 3 7.00 Fair CLR 91.2 70.9 51% 98 30.02 0.0
01 13:15 W 5 7.00 Fair CLR 90.5 70.7 52% 97 30.02 0.0
01 12:55 W 6 10.00 Fair CLR 89.8 72.1 56% 97 30.03 0.0
01 12:35 W 5 7.00 Fair CLR 89.1 72.1 57% 96 30.03 0.0
01 12:15 W 5 7.00 Fair CLR 87.8 72.7 61% 95 30.04 0.0
01 11:55 W 3 7.00 Fair CLR 86.4 72.3 63% 93 30.05 0.0
01 11:35 W 5 7.00 Fair CLR 86.5 73 64% 94 30.05 0.0
01 11:15 W 3 10.00 Fair CLR 85.8 74.1 68% 94 30.06 0.0
01 10:55 W 3 10.00 Fair CLR 84.9 73.9 70% 92 30.07 0.0
01 10:35 SW 5 10.00 Fair CLR 83.7 74.5 74% 91 30.07 0.0
01 10:15 Calm 7.00 Fair CLR 82 74.8 79% 89 30.07 0.0
01 09:55 W 3 10.00 Fair CLR 80.6 75.4 84% 86 30.06 0.0
01 09:35 Calm 10.00 Fair CLR 79.7 75.4 87% 84 30.06 0.0
01 09:15 Calm 10.00 Fair CLR 77.7 74.5 90% 80 30.06 0.0
01 08:55 W 5 10.00 Fair CLR 76.5 74.3 93% 77 30.07 0.0
01 08:35 W 3 10.00 Fair CLR 75.2 74.3 97% 73 30.07 0.0
01 08:15 W 3 10.00 Fair CLR 74.3 73.6 98% 30.07 0.0
01 07:55 Calm 10.00 Fair CLR 73.4 73 73.4 69.8 99% 30.06 0.0 0.01 0.01
01 07:35 Calm 10.00 Fair CLR 72.3 72 99% 30.05 0.0 0.01
01 07:15 Calm 7.00 Fair CLR 70.5 70.2 99% 30.05 0.0 0.01
01 06:55 Calm 1.50 Sky Obscured VV007 70.2 70 99% 30.06 0.0
01 06:35 Calm 7.00 Fair CLR 70.9 70.5 99% 30.05 0.0
01 06:15 Calm 0.50 Sky Obscured VV005 71.1 70.7 99% 30.04 0.0
01 05:55 Calm 10.00 Fair CLR 70.5 70.2 99% 30.05 0.0
01 05:35 Calm 7.00 Fair CLR 70 69.8 99% 30.05 0.0
01 05:15 Calm 5.00 Fair CLR 70.7 70.3 99% 30.04 0.0
01 04:55 Calm 5.00 Fair CLR 71.4 71.1 99% 30.04 0.0
01 04:35 Calm 2.50 Fair CLR 71.6 71.2 99% 30.04 0.0
01 04:15 Calm 7.00 Fair CLR 71.6 71.1 98% 30.05 0.0
01 03:55 Calm 3.00 Fair CLR 70.9 70.7 99% 30.05 0.0
01 03:35 Calm 1.25 Sky Obscured VV007 71.4 71.1 99% 30.05 0.0
01 03:15 Calm 2.50 Fair CLR 72 71.6 99% 30.06 0.0
01 02:55 Calm 2.00 Fair CLR 71.4 71.1 99% 30.06 0.0
01 02:35 Calm 3.00 Partly Cloudy SCT120 72.1 71.8 99% 30.07 0.0
01 02:15 Calm 4.00 Partly Cloudy SCT120 72.3 72 99% 30.07 0.0
01 01:55 Calm 5.00 Fair CLR 73.2 72.9 75.4 72.9 99% 30.08 0.0 0.05
01 01:35 Calm 5.00 Partly Cloudy SCT075 SCT085 73.2 72.9 99% 30.08 0.0
01 01:15 Calm 4.00 Mostly Cloudy BKN085 73.6 73.4 99% 30.08 0.0
01 00:55 Calm 7.00 Mostly Cloudy BKN080 74.1 73.6 98% 30.08 0.0
01 00:35 Calm 5.00 Partly Cloudy SCT080 73.9 73.4 98% 30.08 0.0
01 00:15 Calm 10.00 Fair CLR 74.5 73.6 97% 30.07 0.0
31 23:55 S 5 10.00 Fair CLR 74.7 74.3 99% 30.08 0.0
31 23:35 Calm 7.00 Fair CLR 74.3 73.8 98% 30.08 0.0
31 23:15 Calm 1.50 Sky Obscured VV007 72.9 72.5 99% 30.07 0.0
31 22:55 Calm 3.00 Fair CLR 73.4 72.9 98% 30.08 0.0 0.05
31 22:35 Calm 0.75 Sky Obscured VV005 73.6 73.4 99% 30.08 0.0
31 22:15 Calm 7.00 Fair CLR 73.9 73.4 98% 30.08 0.0
31 21:55 Calm 5.00 Fair CLR 74.3 73.8 98% 30.08 0.0
31 21:35 N 3 4.00 Fair CLR 74.3 73.9 99% 30.08 0.0
31 21:15 Calm 7.00 Fair CLR 74.5 74.1 99% 30.08 0.0
31 20:35 Calm 7.00 Partly Cloudy SCT070 SCT100 SCT120 74.5 73.8 98% 30.08 0.0 0.05
31 20:15 SE 3 5.00 Overcast SCT028 BKN041 OVC120 74.5 73.2 96% 30.09 0.0 0.05
31 19:55 N 5 1.50 Overcast SCT021 BKN027 OVC034 75.4 74.5 91.6 75.4 97% 74 30.1 0.0 0.4 0.88
31 19:35 NW 3 1.50 Overcast SCT022 BKN028 OVC034 76.1 74.7 95% 76 30.1 0.0 0.21
31 19:15 N 3 1.25 Overcast SCT022 BKN027 OVC050 77 75.2 94% 78 30.09 0.0 0.09
31 18:55 Calm 5.00 Mostly Cloudy BKN060 78.1 75.2 91% 81 30.07 0.0
31 18:35 E 5 5.00 Fair CLR 79.3 75.4 88% 84 30.06 0.0
31 18:15 SE 5 7.00 Partly Cloudy SCT065 SCT080 79.2 75 87% 83 30.06 0.0
31 17:55 S 7 7.00 Overcast SCT006 BKN065 OVC090 79.2 73.4 83% 83 30.06 0.0 0.48
31 17:35 SE 12 G 17 0.25 Overcast BKN008 OVC018 77.7 71.8 82% 80 30.06 0.0 0.48
31 17:15 NW 3 7.00 Overcast OVC055 86 70.9 61% 91 30.05 0.0
31 16:55 E 6 10.00 Mostly Cloudy BKN055 BKN070 89.6 70 52% 95 30.05 0.0
31 16:35 E 6 10.00 Partly Cloudy SCT055 SCT065 SCT085 90.5 70.7 52% 97 30.06 0.0
31 16:15 E 7 10.00 Fair CLR 91 71.8 53% 98 30.05 0.0
31 15:55 NE 3 10.00 Fair CLR 89.6 70.9 54% 96 30.06 0.0
31 15:35 NE 7 10.00 Partly Cloudy SCT070 SCT100 SCT120 87.4 71.1 58% 93 30.06 0.0
31 15:15 NE 8 7.00 Partly Cloudy SCT070 SCT100 86.7 68.7 55% 91 30.07 0.0
31 14:55 Calm 10.00 Partly Cloudy SCT100 90 68.9 50% 95 30.07 0.0
31 14:35 W 5 7.00 Mostly Cloudy BKN100 89.6 67.3 48% 93 30.07 0.0
31 14:15 W 8 10.00 Partly Cloudy SCT100 91 67.6 46% 95 30.08 0.0
31 13:55 W 5 10.00 Fair CLR 90.3 69.6 90.3 75 51% 96 30.08 0.0
31 13:35 W 6 7.00 Fair CLR 89.8 71.2 54% 96 30.08 0.0
31 13:15 W 5 7.00 Fair CLR 88.9 71.6 57% 95 30.08 0.0
31 12:55 Calm 7.00 Fair CLR 88.2 71.8 58% 95 30.09 0.0
31 12:35 Calm 7.00 Fair CLR 87.3 71.2 59% 93 30.1 0.0
31 12:15 Calm 10.00 Fair CLR 86.7 70.2 58% 92 30.1 0.0
31 11:55 Calm 10.00 Fair CLR 86.2 70.3 59% 91 30.1 0.0
31 11:35 Calm 7.00 Fair CLR 86 71.6 62% 92 30.1 0.0
31 11:15 Calm 10.00 Fair CLR 85.1 70.7 62% 90 30.11 0.0
31 10:55 N 3 7.00 Fair CLR 84 71.1 65% 89 30.11 0.0
31 10:35 NW 3 10.00 Fair CLR 83.1 71.1 67% 88 30.11 0.0
31 10:15 Calm 7.00 Fair CLR 82.2 72 71% 87 30.11 0.0
31 09:55 NW 5 7.00 Fair CLR 81.1 72.1 74% 86 30.11 0.0
31 09:35 W 8 7.00 Fair CLR 80.6 72 75% 85 30.1 0.0
31 09:15 W 3 7.00 Fair CLR 79.3 70.9 75% 82 30.1 0.0
31 08:55 W 7 7.00 Fair CLR 78.4 71.4 79% 81 30.1 0.0
31 08:35 W 3 7.00 Fair CLR 77.2 71.4 82% 79 30.11 0.0
31 08:15 W 5 5.00 Fair CLR 76.5 71.6 85% 77 30.11 0.0
31 07:55 Calm 4.00 Fair CLR 74.8 71.6 75.6 73.4 90% 30.1 0.0
31 07:35 SW 3 5.00 Fair CLR 73.8 71.2 92% 30.1 0.0
31 07:15 Calm 5.00 Partly Cloudy SCT110 73.8 71.6 93% 30.1 0.0
31 06:55 Calm 7.00 Mostly Cloudy BKN100 74.3 71.8 92% 30.1 0.0
31 06:35 Calm 7.00 Overcast OVC090 74.5 72.1 92% 30.09 0.0
31 06:15 Calm 7.00 Overcast SCT080 OVC085 74.8 72 91% 30.08 0.0
31 05:55 Calm 7.00 Overcast BKN080 OVC090 74.8 72 91% 30.09 0.0
31 05:35 Calm 7.00 Mostly Cloudy SCT080 BKN090 75.2 72.1 90% 74 30.09 0.0
31 05:15 S 3 7.00 Partly Cloudy SCT090 75.2 72.3 91% 74 30.09 0.0
31 04:55 Calm 7.00 Overcast OVC100 75 72.5 92% 74 30.09 0.0
31 04:35 Calm 7.00 Overcast OVC100 75.2 72.5 91% 74 30.09 0.0
31 04:15 Calm 7.00 Overcast OVC100 75 72.7 92% 74 30.09 0.0
31 03:55 Calm 7.00 Mostly Cloudy BKN100 BKN120 75 72.9 93% 74 30.09 0.0
31 03:35 SW 3 7.00 Partly Cloudy SCT110 74.8 73 94% 30.09 0.0
31 03:15 Calm 7.00 Partly Cloudy SCT120 75.2 73.4 94% 74 30.1 0.0
31 02:55 S 5 7.00 Partly Cloudy SCT120 75.2 73.4 94% 74 30.1 0.0
31 02:35 S 3 7.00 Fair CLR 75.2 73.2 94% 74 30.1 0.0
31 02:15 Calm 7.00 Fair CLR 75.2 73 93% 74 30.1 0.0
31 01:55 SW 3 7.00 Fair CLR 75.7 73.4 77.5 74.8 92% 75 30.1 0.0
31 01:35 Calm 7.00 Fair CLR 75.4 73 92% 74 30.1 0.0
31 01:15 Calm 7.00 Fair CLR 76.1 73.2 91% 76 30.1 0.0
31 00:55 S 3 7.00 Fair CLR 76.1 73 90% 76 30.1 0.0
31 00:35 S 3 7.00 Fair CLR 76.1 73.4 91% 76 30.1 0.0
31 00:15 Calm 7.00 Fair CLR 76.5 73.4 90% 77 30.11 0.0
30 23:55 S 3 7.00 Fair CLR 76.3 73.2 90% 77 30.11 0.0
30 23:35 Calm 7.00 Fair CLR 76.1 73.6 92% 76 30.11 0.0
30 23:15 Calm 7.00 Fair CLR 77 73.6 89% 78 30.12 0.0
30 22:55 Calm 7.00 Fair CLR 77.4 73.8 89% 79 30.11 0.0
30 22:35 Calm 7.00 Fair CLR 76.6 73.9 91% 77 30.12 0.0
30 22:15 Calm 7.00 Fair CLR 75.7 73 91% 75 30.12 0.0
30 21:55 SE 3 7.00 Fair CLR 75.6 72.9 91% 75 30.12 0.0
30 21:35 SE 3 7.00 Fair CLR 75.6 72.7 91% 75 30.13 0.0
30 21:15 E 5 10.00 Fair CLR 75.2 72.7 92% 74 30.13 0.0
30 20:55 E 6 10.00 Fair CLR 75.6 72.5 90% 75 30.12 0.0
30 20:35 E 5 7.00 Fair CLR 75.2 71.8 89% 75 30.11 0.0
30 20:15 E 6 7.00 Fair CLR 77 71.8 84% 78 30.11 0.0
30 19:55 E 5 7.00 Fair CLR 77.7 71.6 88.7 77.7 82% 80 30.11 0.0
30 19:35 SE 6 7.00 Fair CLR 79.2 72.3 80% 82 30.1 0.0
30 19:15 SE 5 5.00 Fair CLR 80.8 72.5 76% 85 30.11 0.0
30 18:55 SE 8 7.00 Fair CLR 82.2 72.7 73% 88 30.1 0.0
30 18:35 SE 8 5.00 Fair CLR 83.8 73 70% 90 30.11 0.0
30 18:15 S 9 7.00 Fair CLR 84.6 73.6 70% 92 30.1 0.0
30 17:55 S 6 7.00 Fair CLR 85.5 73 66% 92 30.1 0.0
30 17:35 S 7 7.00 Fair CLR 86.9 71.1 59% 93 30.1 0.0
30 17:15 S 6 7.00 Fair CLR 87.3 68.7 54% 91 30.1 0.0
30 16:55 Calm 10.00 Fair CLR 87.8 68.4 53% 92 30.1 0.0
30 16:35 SW 3 7.00 Fair CLR 87.4 68 53% 91 30.1 0.0
30 16:15 Calm 10.00 Fair CLR 87.4 67.1 51% 90 30.11 0.0
30 15:55 S 3 10.00 Fair CLR 87.1 67.3 52% 90 30.12 0.0
30 15:35 S 3 7.00 Fair CLR 87.1 67.8 53% 90 30.12 0.0
30 15:15 W 3 10.00 Fair CLR 87.1 68.5 54% 91 30.13 0.0
30 14:55 S 3 7.00 Fair CLR 86.5 67.8 54% 90 30.14 0.0
30 14:35 S 3 10.00 Fair CLR 86.4 68.2 55% 90 30.15 0.0
30 14:15 S 5 10.00 Fair CLR 86 69.8 59% 91 30.16 0.0
30 13:55 Calm 7.00 Fair CLR 85.5 69.1 85.6 70 58% 89 30.17 0.0
30 13:35 SW 5 7.00 Fair CLR 85.3 70 60% 90 30.17 0.0
Date Time (edt) Wind (mph) Vis. (mi.) Weather Sky Cond. Air Dwpt Max. Min. Relative Humidity Wind Chill (°F) Heat Index (°F) altimeter (in) sea level (mb) 1 hr 3 hr 6 hr
6 hour
Temperature (ºF) Pressure Precipitation (in)